»·PEaware :: N260MA KPSP-KPOC

N260MA :: KPSP-KPOC

FLIGHT INFORMATION

Flight Status: Arrived
Operator: Privately registered:
United States
More flights under this callsign
Pilot: Anonymous 30260 (30260)
Aircraft: AERMACCHI WARRIOR
(F260)
More flights by this aircraft type
Origin: KPSP Palm Springs Intl
United States
Destination: KPOC Brackett
United States
More flights between these airports :: More routes between these airports
Route: CATH1 PSP V388 PDZ PDZ270/013 RNDAL V363 POM
File this flight plan on PilotEdge
Remarks: TEC PSPP5 / / REQ. HOLD IN VCNTY OF KPOC / / REQ. ENROUTE RE-ROUTE
Altitude:
(Current/Filed)
10,000ft
Speed:
(Current/Filed)
168kts
Departed: 09-Jan-21 07:21 PM
Arrived: 09-Jan-21 07:58 PM
Distance/Time
Traveled:
65nm/0:37
Distance/Time
To Go:
Arrived

Flight Plot

Page will automatically refresh every two minutes.

Flight plan parsing failed; only flown route is shown


Map Options




Map Legend


Flown Route
Filed Route
Departure Airport
Arrival Airport
Navaid (VOR, NDB)
Fix

Horizontal Profiles

Position Reports

Time Latitude Longitude Heading Altitude Ground
Speed
09-Jan-21 19:03 33.825360 -116.509766 359 420ft 0kts
09-Jan-21 19:03 33.825360 -116.509766 359 420ft 0kts
09-Jan-21 19:04 33.825360 -116.509766 359 420ft 0kts
09-Jan-21 19:06 33.825360 -116.509766 359 420ft 0kts
09-Jan-21 19:07 33.825360 -116.509766 359 420ft 0kts
09-Jan-21 19:07 33.825360 -116.509766 359 420ft 0kts
09-Jan-21 19:08 33.825360 -116.509766 359 420ft 0kts
09-Jan-21 19:09 33.825360 -116.509766 359 420ft 0kts
09-Jan-21 19:10 33.825360 -116.509766 359 420ft 0kts
09-Jan-21 19:11 33.825360 -116.509766 359 420ft 0kts
09-Jan-21 19:12 33.825360 -116.509766 359 420ft 0kts
09-Jan-21 19:13 33.825360 -116.509766 359 420ft 0kts
09-Jan-21 19:14 33.825365 -116.509661 345 420ft 4kts
09-Jan-21 19:15 33.825833 -116.507080 20 416ft 9kts
09-Jan-21 19:16 33.827680 -116.507203 0 420ft 0kts
09-Jan-21 19:17 33.827680 -116.507203 359 420ft 0kts
09-Jan-21 19:18 33.827680 -116.507203 0 420ft 0kts
09-Jan-21 19:19 33.828879 -116.507200 359 422ft 10kts
09-Jan-21 19:20 33.843054 -116.519430 320 948ft 100kts
09-Jan-21 19:21 33.869332 -116.542921 322 2574ft 116kts
09-Jan-21 19:22 33.896663 -116.567767 347 4253ft 117kts
09-Jan-21 19:23 33.904859 -116.544312 106 5897ft 92kts
09-Jan-21 19:24 33.894964 -116.512309 96 7233ft 95kts
09-Jan-21 19:25 33.884429 -116.477915 100 8423ft 103kts
09-Jan-21 19:26 33.872683 -116.441801 102 9534ft 109kts
09-Jan-21 19:27 33.864031 -116.402784 25 10054ft 116kts
09-Jan-21 19:28 33.882833 -116.444774 282 10013ft 174kts
09-Jan-21 19:29 33.890116 -116.506735 289 9984ft 178kts
09-Jan-21 19:30 33.903207 -116.566902 296 10013ft 174kts
09-Jan-21 19:31 33.917556 -116.628066 290 9935ft 181kts
09-Jan-21 19:32 33.931362 -116.688687 298 10035ft 174kts
09-Jan-21 19:33 33.946912 -116.745515 286 10035ft 159kts
09-Jan-21 19:34 33.938749 -116.804031 262 9930ft 166kts
09-Jan-21 19:35 33.925762 -116.861382 262 9922ft 165kts
09-Jan-21 19:36 33.915364 -116.919415 268 9918ft 163kts
09-Jan-21 19:37 33.913727 -116.978164 282 9916ft 161kts
09-Jan-21 19:38 33.919346 -117.038191 280 9721ft 175kts
09-Jan-21 19:39 33.923608 -117.104326 279 8890ft 190kts
09-Jan-21 19:40 33.929752 -117.174047 275 7529ft 203kts
09-Jan-21 19:41 33.926074 -117.247137 272 6022ft 203kts
09-Jan-21 19:42 33.923770 -117.312182 271 6010ft 163kts
09-Jan-21 19:43 33.918647 -117.371070 275 5165ft 156kts
09-Jan-21 19:44 33.919449 -117.420699 281 3992ft 119kts
09-Jan-21 19:45 33.923057 -117.460880 263 4027ft 117kts
09-Jan-21 19:46 33.924046 -117.502064 314 4013ft 112kts
09-Jan-21 19:47 33.951225 -117.522862 304 3999ft 97kts
09-Jan-21 19:48 33.984481 -117.524958 1 4030ft 119kts
09-Jan-21 19:49 34.020686 -117.522250 0 4077ft 124kts
09-Jan-21 19:50 34.058992 -117.522370 344 3867ft 111kts
09-Jan-21 19:51 34.077424 -117.553434 283 4109ft 133kts
09-Jan-21 19:52 34.081516 -117.610053 277 4044ft 172kts
09-Jan-21 19:53 34.085258 -117.667306 277 3350ft 152kts
09-Jan-21 19:54 34.087691 -117.713828 279 2370ft 103kts
09-Jan-21 19:55 34.089667 -117.749289 275 1592ft 91kts
09-Jan-21 19:56 34.091195 -117.779254 272 998ft 62kts
09-Jan-21 19:57 34.090979 -117.784421 182 987ft 0kts
09-Jan-21 19:58 34.090733 -117.784264 95 988ft 7kts
09-Jan-21 19:59 34.089535 -117.783598 94 991ft 0kts
09-Jan-21 20:00 34.089535 -117.783598 94 991ft 0kts

Navigation Log

Ident Type
Flight plan parsing failed, navigation log unavailable